sensor_id;sensor_type;location;lat;lon;timestamp;pressure;altitude;pressure_sealevel;temperature;humidity
55550;BME280;41397;49.972;18.944;2023-02-28T00:00:15;103111.24;;;5.64;52.22
55550;BME280;41397;49.972;18.944;2023-02-28T00:03:22;103116.84;;;5.58;52.52
55550;BME280;41397;49.972;18.944;2023-02-28T00:06:24;103120.66;;;5.49;52.42
55550;BME280;41397;49.972;18.944;2023-02-28T00:09:30;103120.75;;;5.44;52.68
55550;BME280;41397;49.972;18.944;2023-02-28T00:12:31;103122.53;;;5.45;52.39
55550;BME280;41397;49.972;18.944;2023-02-28T00:15:33;103128.88;;;5.46;52.53
55550;BME280;41397;49.972;18.944;2023-02-28T00:18:36;103122.53;;;5.45;52.70
55550;BME280;41397;49.972;18.944;2023-02-28T00:21:39;103128.88;;;5.46;52.96
55550;BME280;41397;49.972;18.944;2023-02-28T00:24:41;103134.33;;;5.44;52.96
55550;BME280;41397;49.972;18.944;2023-02-28T00:27:43;103136.17;;;5.42;53.19
55550;BME280;41397;49.972;18.944;2023-02-28T00:30:44;103142.45;;;5.46;53.17
55550;BME280;41397;49.972;18.944;2023-02-28T00:33:47;103137.02;;;5.46;53.27
55550;BME280;41397;49.972;18.944;2023-02-28T00:36:48;103150.52;;;5.49;53.26
55550;BME280;41397;49.972;18.944;2023-02-28T00:39:50;103145.03;;;5.50;53.32
55550;BME280;41397;49.972;18.944;2023-02-28T00:42:51;103137.68;;;5.55;53.17
55550;BME280;41397;49.972;18.944;2023-02-28T00:45:55;103137.68;;;5.55;53.44
55550;BME280;41397;49.972;18.944;2023-02-28T00:48:57;103140.30;;;5.60;53.31
55550;BME280;41397;49.972;18.944;2023-02-28T00:51:58;103141.20;;;5.59;53.63
55550;BME280;41397;49.972;18.944;2023-02-28T00:54:59;103138.70;;;5.51;53.58
55550;BME280;41397;49.972;18.944;2023-02-28T00:58:03;103137.85;;;5.48;53.74
55550;BME280;41397;49.972;18.944;2023-02-28T01:01:05;103126.09;;;5.49;53.75
55550;BME280;41397;49.972;18.944;2023-02-28T01:04:06;103117.09;;;5.45;53.78
55550;BME280;41397;49.972;18.944;2023-02-28T01:07:08;103118.04;;;5.44;53.83
55550;BME280;41397;49.972;18.944;2023-02-28T01:10:11;103117.09;;;5.45;54.02
55550;BME280;41397;49.972;18.944;2023-02-28T01:13:13;103112.78;;;5.37;54.24
55550;BME280;41397;49.972;18.944;2023-02-28T01:16:16;103108.45;;;5.29;54.63
55550;BME280;41397;49.972;18.944;2023-02-28T01:19:17;103108.48;;;5.26;54.76
55550;BME280;41397;49.972;18.944;2023-02-28T01:22:19;103118.58;;;5.21;54.53
55550;BME280;41397;49.972;18.944;2023-02-28T01:25:21;103100.56;;;5.17;54.60
55550;BME280;41397;49.972;18.944;2023-02-28T01:28:22;103113.33;;;5.12;54.52
55550;BME280;41397;49.972;18.944;2023-02-28T01:31:24;103113.38;;;5.10;54.63
55550;BME280;41397;49.972;18.944;2023-02-28T01:34:27;103108.03;;;5.07;54.62
55550;BME280;41397;49.972;18.944;2023-02-28T01:37:29;103109.80;;;5.08;54.54
55550;BME280;41397;49.972;18.944;2023-02-28T01:40:30;103096.24;;;5.08;54.62
55550;BME280;41397;49.972;18.944;2023-02-28T01:46:44;103100.00;;;5.01;54.68
55550;BME280;41397;49.972;18.944;2023-02-28T01:49:46;103096.25;;;5.07;54.88
55550;BME280;41397;49.972;18.944;2023-02-28T01:52:49;103098.00;;;5.11;54.48
55550;BME280;41397;49.972;18.944;2023-02-28T01:55:51;103090.76;;;5.10;54.55
55550;BME280;41397;49.972;18.944;2023-02-28T01:58:55;103083.57;;;5.09;54.43
55550;BME280;41397;49.972;18.944;2023-02-28T02:02:03;103103.52;;;5.06;54.41
55550;BME280;41397;49.972;18.944;2023-02-28T02:05:10;103098.23;;;5.00;54.39
55550;BME280;41397;49.972;18.944;2023-02-28T02:08:20;103101.19;;;4.88;54.77
55550;BME280;41397;49.972;18.944;2023-02-28T02:11:24;103104.84;;;4.87;54.56
55550;BME280;41397;49.972;18.944;2023-02-28T02:17:51;103101.47;;;4.74;54.60
55550;BME280;41397;49.972;18.944;2023-02-28T02:30:50;103096.03;;;4.76;54.92
55550;BME280;41397;49.972;18.944;2023-02-28T02:37:21;103088.87;;;4.72;54.97
55550;BME280;41397;49.972;18.944;2023-02-28T02:40:23;103085.33;;;4.70;55.09
55550;BME280;41397;49.972;18.944;2023-02-28T02:43:34;103090.95;;;4.59;54.81
55550;BME280;41397;49.972;18.944;2023-02-28T02:46:44;103090.02;;;4.60;55.05
55550;BME280;41397;49.972;18.944;2023-02-28T02:49:52;103098.20;;;4.58;55.00
55550;BME280;41397;49.972;18.944;2023-02-28T02:52:59;103099.04;;;4.60;55.03
55550;BME280;41397;49.972;18.944;2023-02-28T02:56:03;103100.11;;;4.53;55.12
55550;BME280;41397;49.972;18.944;2023-02-28T02:59:09;103111.77;;;4.57;55.00
55550;BME280;41397;49.972;18.944;2023-02-28T03:02:14;103108.19;;;4.55;55.07
55550;BME280;41397;49.972;18.944;2023-02-28T03:05:30;103104.59;;;4.54;55.06
55550;BME280;41397;49.972;18.944;2023-02-28T03:08:28;103093.55;;;4.63;54.88
55550;BME280;41397;49.972;18.944;2023-02-28T03:11:31;103097.12;;;4.67;54.92
55550;BME280;41397;49.972;18.944;2023-02-28T03:14:43;103096.16;;;4.70;54.75
55550;BME280;41397;49.972;18.944;2023-02-28T03:21:06;103090.80;;;4.66;54.60
55550;BME280;41397;49.972;18.944;2023-02-28T03:27:31;103102.56;;;4.65;54.08
55550;BME280;41397;49.972;18.944;2023-02-28T03:34:27;103106.23;;;4.63;54.25
55550;BME280;41397;49.972;18.944;2023-02-28T03:37:15;103109.81;;;4.63;54.24
55550;BME280;41397;49.972;18.944;2023-02-28T03:40:25;103110.89;;;4.56;54.07
55550;BME280;41397;49.972;18.944;2023-02-28T03:43:32;103110.02;;;4.53;54.17
55550;BME280;41397;49.972;18.944;2023-02-28T03:46:38;103117.34;;;4.49;54.24
55550;BME280;41397;49.972;18.944;2023-02-28T03:49:52;103116.45;;;4.49;54.49
55550;BME280;41397;49.972;18.944;2023-02-28T03:53:00;103121.88;;;4.47;54.35
55550;BME280;41397;49.972;18.944;2023-02-28T03:56:20;103130.05;;;4.45;54.23
55550;BME280;41397;49.972;18.944;2023-02-28T03:59:28;103122.80;;;4.46;54.34
55550;BME280;41397;49.972;18.944;2023-02-28T04:02:32;103138.19;;;4.45;54.37
55550;BME280;41397;49.972;18.944;2023-02-28T04:08:46;103139.21;;;4.38;54.35
55550;BME280;41397;49.972;18.944;2023-02-28T04:11:51;103142.99;;;4.28;54.49
55550;BME280;41397;49.972;18.944;2023-02-28T04:14:53;103137.57;;;4.28;54.62
55550;BME280;41397;49.972;18.944;2023-02-28T04:17:55;103144.81;;;4.28;54.85
55550;BME280;41397;49.972;18.944;2023-02-28T04:21:00;103146.63;;;4.27;54.62
55550;BME280;41397;49.972;18.944;2023-02-28T04:24:02;103146.63;;;4.27;55.03
55550;BME280;41397;49.972;18.944;2023-02-28T04:27:03;103133.14;;;4.24;54.70
55550;BME280;41397;49.972;18.944;2023-02-28T04:30:06;103144.05;;;4.21;54.81
55550;BME280;41397;49.972;18.944;2023-02-28T04:33:08;103138.70;;;4.16;54.66
55550;BME280;41397;49.972;18.944;2023-02-28T04:36:09;103142.41;;;4.11;55.11
55550;BME280;41397;49.972;18.944;2023-02-28T04:39:10;103146.05;;;4.08;55.01
55550;BME280;41397;49.972;18.944;2023-02-28T04:42:12;103149.70;;;4.07;54.97
55550;BME280;41397;49.972;18.944;2023-02-28T04:45:15;103138.93;;;4.04;55.02
55550;BME280;41397;49.972;18.944;2023-02-28T04:48:18;103143.45;;;4.02;54.93
55550;BME280;41397;49.972;18.944;2023-02-28T04:51:19;103149.74;;;4.04;54.85
55550;BME280;41397;49.972;18.944;2023-02-28T04:54:21;103149.74;;;4.04;55.05
55550;BME280;41397;49.972;18.944;2023-02-28T04:57:22;103149.70;;;4.06;55.12
55550;BME280;41397;49.972;18.944;2023-02-28T05:00:24;103143.47;;;4.00;55.09
55550;BME280;41397;49.972;18.944;2023-02-28T05:03:26;103158.77;;;4.03;55.21
55550;BME280;41397;49.972;18.944;2023-02-28T05:06:29;103145.23;;;4.03;55.02
55550;BME280;41397;49.972;18.944;2023-02-28T05:09:31;103147.11;;;3.99;55.05
55550;BME280;41397;49.972;18.944;2023-02-28T05:12:33;103143.52;;;3.99;55.09
55550;BME280;41397;49.972;18.944;2023-02-28T05:15:35;103151.59;;;4.00;55.11
55550;BME280;41397;49.972;18.944;2023-02-28T05:18:37;103149.82;;;4.01;55.06
55550;BME280;41397;49.972;18.944;2023-02-28T05:21:41;103141.71;;;3.98;55.29
55550;BME280;41397;49.972;18.944;2023-02-28T05:24:42;103146.23;;;3.97;55.34
55550;BME280;41397;49.972;18.944;2023-02-28T05:27:44;103149.88;;;3.96;55.35
55550;BME280;41397;49.972;18.944;2023-02-28T05:33:59;103164.30;;;3.95;55.45
55550;BME280;41397;49.972;18.944;2023-02-28T05:37:00;103168.01;;;3.91;55.23
55550;BME280;41397;49.972;18.944;2023-02-28T05:40:02;103170.73;;;3.90;55.36
55550;BME280;41397;49.972;18.944;2023-02-28T05:43:10;103177.05;;;3.90;55.49
55550;BME280;41397;49.972;18.944;2023-02-28T05:46:13;103183.46;;;3.85;55.42
55550;BME280;41397;49.972;18.944;2023-02-28T05:49:15;103181.59;;;3.88;55.52
55550;BME280;41397;49.972;18.944;2023-02-28T05:52:17;103190.75;;;3.80;55.57
55550;BME280;41397;49.972;18.944;2023-02-28T05:55:18;103189.83;;;3.79;55.81
55550;BME280;41397;49.972;18.944;2023-02-28T05:58:20;103189.83;;;3.79;55.90
55550;BME280;41397;49.972;18.944;2023-02-28T06:01:34;103197.94;;;3.82;55.82
55550;BME280;41397;49.972;18.944;2023-02-28T06:04:37;103196.07;;;3.84;55.99
55550;BME280;41397;49.972;18.944;2023-02-28T06:07:38;103196.12;;;3.83;56.06
55550;BME280;41397;49.972;18.944;2023-02-28T06:10:40;103201.43;;;3.89;56.04
55550;BME280;41397;49.972;18.944;2023-02-28T06:13:41;103204.09;;;3.92;56.20
55550;BME280;41397;49.972;18.944;2023-02-28T06:16:43;103205.02;;;3.91;56.14
55550;BME280;41397;49.972;18.944;2023-02-28T06:19:45;103209.53;;;3.90;56.11
55550;BME280;41397;49.972;18.944;2023-02-28T06:22:47;103205.90;;;3.93;55.85
55550;BME280;41397;49.972;18.944;2023-02-28T06:25:48;103206.69;;;3.98;55.89
55550;BME280;41397;49.972;18.944;2023-02-28T06:28:50;103209.33;;;4.03;55.98
55550;BME280;41397;49.972;18.944;2023-02-28T06:31:53;103211.98;;;4.06;56.01
55550;BME280;41397;49.972;18.944;2023-02-28T06:34:54;103213.70;;;4.11;55.79
55550;BME280;41397;49.972;18.944;2023-02-28T06:37:58;103220.12;;;4.06;55.79
55550;BME280;41397;49.972;18.944;2023-02-28T06:41:00;103229.99;;;4.10;55.77
55550;BME280;41397;49.972;18.944;2023-02-28T06:44:02;103225.41;;;4.13;55.76
55550;BME280;41397;49.972;18.944;2023-02-28T06:47:05;103227.19;;;4.16;55.96
55550;BME280;41397;49.972;18.944;2023-02-28T06:50:09;103231.70;;;4.15;55.95
55550;BME280;41397;49.972;18.944;2023-02-28T06:53:12;103229.82;;;4.20;55.86
55550;BME280;41397;49.972;18.944;2023-02-28T06:56:15;103233.38;;;4.24;55.55
55550;BME280;41397;49.972;18.944;2023-02-28T06:59:17;103238.73;;;4.27;55.52
55550;BME280;41397;49.972;18.944;2023-02-28T07:02:18;103243.38;;;4.20;55.49
55550;BME280;41397;49.972;18.944;2023-02-28T07:05:20;103239.89;;;4.11;55.71
55550;BME280;41397;49.972;18.944;2023-02-28T07:08:25;103247.03;;;4.16;55.69
55550;BME280;41397;49.972;18.944;2023-02-28T07:11:28;103247.79;;;4.26;55.77
55550;BME280;41397;49.972;18.944;2023-02-28T07:14:29;103251.45;;;4.22;56.00
55550;BME280;41397;49.972;18.944;2023-02-28T07:17:31;103247.02;;;4.18;55.39
55550;BME280;41397;49.972;18.944;2023-02-28T07:20:32;103252.44;;;4.18;55.67
55550;BME280;41397;49.972;18.944;2023-02-28T07:23:35;103253.34;;;4.17;55.79
55550;BME280;41397;49.972;18.944;2023-02-28T07:26:36;103252.50;;;4.13;55.41
55550;BME280;41397;49.972;18.944;2023-02-28T07:29:38;103258.84;;;4.12;55.54
55550;BME280;41397;49.972;18.944;2023-02-28T07:32:39;103270.77;;;3.99;55.63
55550;BME280;41397;49.972;18.944;2023-02-28T07:35:41;103275.35;;;3.94;55.96
55550;BME280;41397;49.972;18.944;2023-02-28T07:38:44;103267.08;;;4.05;55.97
55550;BME280;41397;49.972;18.944;2023-02-28T07:41:46;103271.45;;;4.15;56.07
55550;BME280;41397;49.972;18.944;2023-02-28T07:44:48;103275.04;;;4.15;57.06
55550;BME280;41397;49.972;18.944;2023-02-28T07:47:53;103270.31;;;4.28;55.94
55550;BME280;41397;49.972;18.944;2023-02-28T07:50:56;103269.14;;;4.44;55.67
55550;BME280;41397;49.972;18.944;2023-02-28T07:53:58;103277.10;;;4.55;55.56
55550;BME280;41397;49.972;18.944;2023-02-28T07:56:59;103262.46;;;4.67;55.65
55550;BME280;41397;49.972;18.944;2023-02-28T08:00:03;103274.02;;;4.77;55.00
55550;BME280;41397;49.972;18.944;2023-02-28T08:03:05;103268.19;;;5.00;55.33
55550;BME280;41397;49.972;18.944;2023-02-28T08:06:11;103264.41;;;5.08;54.38
55550;BME280;41397;49.972;18.944;2023-02-28T08:09:14;103263.93;;;5.33;54.05
55550;BME280;41397;49.972;18.944;2023-02-28T08:12:19;103263.77;;;5.41;53.52
55550;BME280;41397;49.972;18.944;2023-02-28T08:15:21;103267.40;;;5.40;53.12
55550;BME280;41397;49.972;18.944;2023-02-28T08:18:23;103257.10;;;5.57;52.94
55550;BME280;41397;49.972;18.944;2023-02-28T08:21:24;103261.20;;;5.76;52.34
55550;BME280;41397;49.972;18.944;2023-02-28T08:24:27;103260.00;;;5.90;51.94
55550;BME280;41397;49.972;18.944;2023-02-28T08:27:28;103256.77;;;6.13;51.40
55550;BME280;41397;49.972;18.944;2023-02-28T08:30:30;103255.63;;;6.23;50.57
55550;BME280;41397;49.972;18.944;2023-02-28T08:33:32;103248.35;;;6.23;50.40
55550;BME280;41397;49.972;18.944;2023-02-28T08:36:35;103251.97;;;6.24;49.51
55550;BME280;41397;49.972;18.944;2023-02-28T08:39:37;103252.99;;;6.20;49.34
55550;BME280;41397;49.972;18.944;2023-02-28T08:42:38;103251.87;;;6.29;48.42
55550;BME280;41397;49.972;18.944;2023-02-28T08:45:39;103259.05;;;6.31;48.38
55550;BME280;41397;49.972;18.944;2023-02-28T08:48:43;103248.20;;;6.30;47.89
55550;BME280;41397;49.972;18.944;2023-02-28T08:51:45;103246.97;;;6.43;47.77
55550;BME280;41397;49.972;18.944;2023-02-28T08:54:47;103249.50;;;6.51;46.65
55550;BME280;41397;49.972;18.944;2023-02-28T08:57:49;103246.16;;;6.74;47.12
55550;BME280;41397;49.972;18.944;2023-02-28T09:00:52;103252.10;;;6.89;47.17
55550;BME280;41397;49.972;18.944;2023-02-28T09:03:54;103256.16;;;7.07;46.17
55550;BME280;41397;49.972;18.944;2023-02-28T09:06:56;103251.21;;;7.22;43.16
55550;BME280;41397;49.972;18.944;2023-02-28T09:09:58;103253.32;;;7.43;44.03
55550;BME280;41397;49.972;18.944;2023-02-28T09:12:59;103259.72;;;7.42;43.18
55550;BME280;41397;49.972;18.944;2023-02-28T09:16:03;103249.70;;;7.43;43.08
55550;BME280;41397;49.972;18.944;2023-02-28T09:19:04;103244.74;;;7.57;42.02
55550;BME280;41397;49.972;18.944;2023-02-28T09:22:06;103249.70;;;7.43;42.28
55550;BME280;41397;49.972;18.944;2023-02-28T09:25:07;103249.40;;;7.53;42.71
55550;BME280;41397;49.972;18.944;2023-02-28T09:28:09;103246.58;;;7.56;43.25
55550;BME280;41397;49.972;18.944;2023-02-28T09:31:13;103252.16;;;7.52;42.36
55550;BME280;41397;49.972;18.944;2023-02-28T09:34:14;103253.10;;;7.51;41.96
55550;BME280;41397;49.972;18.944;2023-02-28T09:37:18;103241.60;;;7.71;42.19
55550;BME280;41397;49.972;18.944;2023-02-28T09:40:22;103253.14;;;7.49;42.32
55550;BME280;41397;49.972;18.944;2023-02-28T09:43:34;103251.49;;;7.44;42.17
55550;BME280;41397;49.972;18.944;2023-02-28T09:46:43;103258.98;;;7.36;42.37
55550;BME280;41397;49.972;18.944;2023-02-28T09:49:47;103263.45;;;7.38;42.48
55550;BME280;41397;49.972;18.944;2023-02-28T09:52:50;103263.28;;;7.11;43.33
55550;BME280;41397;49.972;18.944;2023-02-28T09:55:55;103269.02;;;7.01;43.51
55550;BME280;41397;49.972;18.944;2023-02-28T09:59:02;103269.68;;;7.10;43.33
55550;BME280;41397;49.972;18.944;2023-02-28T10:02:13;103265.63;;;7.25;43.48
55550;BME280;41397;49.972;18.944;2023-02-28T10:05:23;103268.86;;;7.40;42.50
55550;BME280;41397;49.972;18.944;2023-02-28T10:08:31;103278.63;;;7.47;42.15
55550;BME280;41397;49.972;18.944;2023-02-28T10:11:36;103269.20;;;7.27;42.94
55550;BME280;41397;49.972;18.944;2023-02-28T10:14:39;103269.79;;;7.39;42.90
55550;BME280;41397;49.972;18.944;2023-02-28T10:17:47;103268.86;;;7.40;43.11
55550;BME280;41397;49.972;18.944;2023-02-28T10:20:51;103263.13;;;7.49;42.91
55550;BME280;41397;49.972;18.944;2023-02-28T10:27:15;103260.96;;;7.62;42.05
55550;BME280;41397;49.972;18.944;2023-02-28T10:30:18;103267.16;;;7.67;42.51
55550;BME280;41397;49.972;18.944;2023-02-28T10:33:29;103257.35;;;7.61;42.21
55550;BME280;41397;49.972;18.944;2023-02-28T10:36:31;103247.84;;;7.74;42.97
55550;BME280;41397;49.972;18.944;2023-02-28T10:39:40;103240.91;;;7.64;43.06
55550;BME280;41397;49.972;18.944;2023-02-28T10:42:42;103245.63;;;7.58;43.07
55550;BME280;41397;49.972;18.944;2023-02-28T10:49:07;103236.70;;;7.52;42.88
55550;BME280;41397;49.972;18.944;2023-02-28T10:52:12;103223.35;;;7.45;43.71
55550;BME280;41397;49.972;18.944;2023-02-28T10:55:24;103229.48;;;7.51;43.94
55550;BME280;41397;49.972;18.944;2023-02-28T10:58:29;103217.54;;;7.55;43.70
55550;BME280;41397;49.972;18.944;2023-02-28T11:01:40;103230.90;;;7.65;43.77
55550;BME280;41397;49.972;18.944;2023-02-28T11:04:42;103225.69;;;7.57;43.36
55550;BME280;41397;49.972;18.944;2023-02-28T11:07:54;103217.48;;;7.59;43.92
55550;BME280;41397;49.972;18.944;2023-02-28T11:10:58;103234.74;;;7.58;43.72
55550;BME280;41397;49.972;18.944;2023-02-28T11:14:06;103208.27;;;7.63;43.25
55550;BME280;41397;49.972;18.944;2023-02-28T11:17:21;103206.40;;;7.65;42.81
55550;BME280;41397;49.972;18.944;2023-02-28T11:20:26;103200.54;;;7.77;42.56
55550;BME280;41397;49.972;18.944;2023-02-28T11:23:31;103192.75;;;7.94;43.17
55550;BME280;41397;49.972;18.944;2023-02-28T11:26:45;103198.67;;;7.79;43.77
55550;BME280;41397;49.972;18.944;2023-02-28T11:29:47;103198.73;;;7.77;43.83
55550;BME280;41397;49.972;18.944;2023-02-28T11:32:49;103186.13;;;7.73;43.59
55550;BME280;41397;49.972;18.944;2023-02-28T11:35:53;103182.46;;;7.74;43.70
55550;BME280;41397;49.972;18.944;2023-02-28T11:39:00;103176.32;;;7.96;44.05
55550;BME280;41397;49.972;18.944;2023-02-28T11:48:51;103176.93;;;8.06;43.10
55550;BME280;41397;49.972;18.944;2023-02-28T11:52:02;103169.53;;;8.09;43.66
55550;BME280;41397;49.972;18.944;2023-02-28T11:55:16;103161.35;;;8.09;43.66
55550;BME280;41397;49.972;18.944;2023-02-28T12:08:18;103168.18;;;8.22;43.07
55550;BME280;41397;49.972;18.944;2023-02-28T12:27:40;103159.90;;;8.26;43.62
55550;BME280;41397;49.972;18.944;2023-02-28T12:31:00;103158.05;;;8.26;43.50
55550;BME280;41397;49.972;18.944;2023-02-28T12:34:10;103156.71;;;8.39;43.61
55550;BME280;41397;49.972;18.944;2023-02-28T12:37:24;103146.96;;;8.32;42.97
55550;BME280;41397;49.972;18.944;2023-02-28T12:40:43;103152.71;;;8.23;43.21
55550;BME280;41397;49.972;18.944;2023-02-28T12:44:03;103147.84;;;8.33;43.14
55550;BME280;41397;49.972;18.944;2023-02-28T12:46:56;103150.34;;;8.40;42.66
55550;BME280;41397;49.972;18.944;2023-02-28T12:50:04;103154.92;;;8.38;42.47
55550;BME280;41397;49.972;18.944;2023-02-28T12:53:10;103154.58;;;8.49;42.49
55550;BME280;41397;49.972;18.944;2023-02-28T12:59:45;103141.34;;;8.37;44.47
55550;BME280;41397;49.972;18.944;2023-02-28T13:03:06;103154.20;;;8.60;46.65
55550;BME280;41397;49.972;18.944;2023-02-28T13:09:19;103136.48;;;8.72;43.58
55550;BME280;41397;49.972;18.944;2023-02-28T13:12:23;103142.32;;;8.61;43.59
55550;BME280;41397;49.972;18.944;2023-02-28T13:15:28;103130.77;;;8.54;43.07
55550;BME280;41397;49.972;18.944;2023-02-28T13:18:41;103138.52;;;8.40;43.07
55550;BME280;41397;49.972;18.944;2023-02-28T13:21:44;103127.13;;;8.27;42.74
55550;BME280;41397;49.972;18.944;2023-02-28T13:24:56;103148.26;;;8.20;42.38
55550;BME280;41397;49.972;18.944;2023-02-28T13:28:00;103120.22;;;8.17;42.12
55550;BME280;41397;49.972;18.944;2023-02-28T13:31:05;103136.09;;;8.04;42.81
55550;BME280;41397;49.972;18.944;2023-02-28T13:34:14;103134.14;;;7.81;43.46
55550;BME280;41397;49.972;18.944;2023-02-28T13:40:32;103118.99;;;7.99;43.51
55550;BME280;41397;49.972;18.944;2023-02-28T13:50:30;103101.72;;;8.00;43.56
55550;BME280;41397;49.972;18.944;2023-02-28T13:53:30;103092.19;;;8.13;43.04
55550;BME280;41397;49.972;18.944;2023-02-28T13:56:45;103107.48;;;8.17;43.53
55550;BME280;41397;49.972;18.944;2023-02-28T14:06:29;103092.93;;;8.18;43.08
55550;BME280;41397;49.972;18.944;2023-02-28T14:09:39;103100.18;;;8.18;43.28
55550;BME280;41397;49.972;18.944;2023-02-28T14:15:58;103086.93;;;8.07;43.27
55550;BME280;41397;49.972;18.944;2023-02-28T14:19:11;103084.05;;;8.12;43.43
55550;BME280;41397;49.972;18.944;2023-02-28T14:38:49;103077.34;;;7.95;44.49
55550;BME280;41397;49.972;18.944;2023-02-28T14:41:57;103084.12;;;7.84;43.92
55550;BME280;41397;49.972;18.944;2023-02-28T14:45:06;103080.92;;;7.97;44.19
55550;BME280;41397;49.972;18.944;2023-02-28T14:48:09;103073.52;;;8.01;43.92
55550;BME280;41397;49.972;18.944;2023-02-28T14:51:13;103092.66;;;7.99;44.39
55550;BME280;41397;49.972;18.944;2023-02-28T14:54:21;103085.48;;;7.97;44.60
55550;BME280;41397;49.972;18.944;2023-02-28T14:57:30;103084.74;;;7.92;44.63
55550;BME280;41397;49.972;18.944;2023-02-28T15:00:36;103074.26;;;8.06;44.38
55550;BME280;41397;49.972;18.944;2023-02-28T15:03:41;103083.05;;;8.14;44.52
55550;BME280;41397;49.972;18.944;2023-02-28T15:06:45;103080.92;;;7.97;44.18
55550;BME280;41397;49.972;18.944;2023-02-28T15:09:47;103079.45;;;8.14;44.18
55550;BME280;41397;49.972;18.944;2023-02-28T15:12:55;103085.12;;;8.08;44.31
55550;BME280;41397;49.972;18.944;2023-02-28T15:16:05;103084.05;;;8.12;44.37
55550;BME280;41397;49.972;18.944;2023-02-28T15:19:23;103075.76;;;7.88;44.31
55550;BME280;41397;49.972;18.944;2023-02-28T15:22:28;103086.77;;;7.85;44.51
55550;BME280;41397;49.972;18.944;2023-02-28T15:25:31;103080.58;;;7.80;44.72
55550;BME280;41397;49.972;18.944;2023-02-28T15:28:32;103068.69;;;7.83;44.90
55550;BME280;41397;49.972;18.944;2023-02-28T15:31:40;103065.67;;;7.92;45.04
55550;BME280;41397;49.972;18.944;2023-02-28T15:34:43;103071.34;;;7.86;44.92
55550;BME280;41397;49.972;18.944;2023-02-28T15:37:48;103066.45;;;7.95;45.15
55550;BME280;41397;49.972;18.944;2023-02-28T15:40:55;103074.06;;;7.86;44.94
55550;BME280;41397;49.972;18.944;2023-02-28T15:47:21;103076.33;;;7.71;45.14
55550;BME280;41397;49.972;18.944;2023-02-28T15:50:24;103065.86;;;7.59;45.57
55550;BME280;41397;49.972;18.944;2023-02-28T15:53:30;103071.00;;;7.68;45.70
55550;BME280;41397;49.972;18.944;2023-02-28T15:56:37;103077.50;;;7.64;45.56
55550;BME280;41397;49.972;18.944;2023-02-28T15:59:48;103079.73;;;7.51;45.68
55550;BME280;41397;49.972;18.944;2023-02-28T16:02:51;103080.75;;;7.47;45.95
55550;BME280;41397;49.972;18.944;2023-02-28T16:09:15;103082.55;;;7.48;46.19
55550;BME280;41397;49.972;18.944;2023-02-28T16:12:17;103095.27;;;7.48;46.17
55550;BME280;41397;49.972;18.944;2023-02-28T16:15:22;103090.41;;;7.29;46.62
55550;BME280;41397;49.972;18.944;2023-02-28T16:18:25;103088.70;;;7.25;47.05
55550;BME280;41397;49.972;18.944;2023-02-28T16:21:26;103083.20;;;7.28;46.70
55550;BME280;41397;49.972;18.944;2023-02-28T16:24:28;103081.40;;;7.27;46.88
55550;BME280;41397;49.972;18.944;2023-02-28T16:27:36;103084.11;;;7.27;47.19
55550;BME280;41397;49.972;18.944;2023-02-28T16:30:38;103082.70;;;7.14;47.45
55550;BME280;41397;49.972;18.944;2023-02-28T16:33:40;103087.33;;;7.12;47.50
55550;BME280;41397;49.972;18.944;2023-02-28T16:36:48;103076.44;;;7.12;47.60
55550;BME280;41397;49.972;18.944;2023-02-28T16:45:22;103102.93;;;7.05;47.19
55550;BME280;41397;49.972;18.944;2023-02-28T16:48:24;103105.40;;;6.83;48.22
55550;BME280;41397;49.972;18.944;2023-02-28T16:51:26;103109.98;;;6.81;48.19
55550;BME280;41397;49.972;18.944;2023-02-28T16:54:34;103114.52;;;6.81;48.08
55550;BME280;41397;49.972;18.944;2023-02-28T16:57:35;103108.12;;;6.83;48.30
55550;BME280;41397;49.972;18.944;2023-02-28T17:00:37;103109.85;;;6.86;48.06
55550;BME280;41397;49.972;18.944;2023-02-28T17:03:40;103118.02;;;6.86;48.06
55550;BME280;41397;49.972;18.944;2023-02-28T17:06:43;103112.70;;;6.81;48.16
55550;BME280;41397;49.972;18.944;2023-02-28T17:09:45;103119.95;;;6.82;48.17
55550;BME280;41397;49.972;18.944;2023-02-28T17:12:47;103112.67;;;6.83;48.34
55550;BME280;41397;49.972;18.944;2023-02-28T17:15:49;103116.48;;;6.76;48.37
55550;BME280;41397;49.972;18.944;2023-02-28T17:18:52;103119.38;;;6.70;48.68
55550;BME280;41397;49.972;18.944;2023-02-28T17:21:54;103129.20;;;6.75;48.96
55550;BME280;41397;49.972;18.944;2023-02-28T17:24:55;103132.86;;;6.74;48.83
55550;BME280;41397;49.972;18.944;2023-02-28T17:27:59;103135.73;;;6.68;48.89
55550;BME280;41397;49.972;18.944;2023-02-28T17:31:00;103132.27;;;6.63;49.34
55550;BME280;41397;49.972;18.944;2023-02-28T17:34:02;103145.05;;;6.59;49.28
55550;BME280;41397;49.972;18.944;2023-02-28T17:37:04;103135.98;;;6.60;49.63
55550;BME280;41397;49.972;18.944;2023-02-28T17:40:09;103132.34;;;6.60;49.63
55550;BME280;41397;49.972;18.944;2023-02-28T17:43:13;103129.86;;;6.52;49.85
55550;BME280;41397;49.972;18.944;2023-02-28T17:46:21;103127.97;;;6.54;49.88
55550;BME280;41397;49.972;18.944;2023-02-28T17:49:24;103130.60;;;6.57;50.09
55550;BME280;41397;49.972;18.944;2023-02-28T17:52:25;103129.91;;;6.49;50.24
55550;BME280;41397;49.972;18.944;2023-02-28T17:55:27;103119.02;;;6.51;50.43
55550;BME280;41397;49.972;18.944;2023-02-28T17:58:28;103138.02;;;6.52;50.75
55550;BME280;41397;49.972;18.944;2023-02-28T18:01:32;103132.63;;;6.49;50.62
55550;BME280;41397;49.972;18.944;2023-02-28T18:04:42;103128.20;;;6.47;50.91
55550;BME280;41397;49.972;18.944;2023-02-28T18:07:44;103139.99;;;6.45;50.73
55550;BME280;41397;49.972;18.944;2023-02-28T18:10:46;103141.84;;;6.43;50.72
55550;BME280;41397;49.972;18.944;2023-02-28T18:13:51;103137.44;;;6.39;50.75